createdAt,value
2023-03-15T00:00:35.922Z,2.98
2023-03-15T00:01:25.935Z,2.94
2023-03-15T00:02:15.932Z,2.90
2023-03-15T00:03:05.906Z,2.87
2023-03-15T00:03:55.910Z,2.84
2023-03-15T00:04:45.879Z,2.76
2023-03-15T00:05:35.868Z,2.71
2023-03-15T00:06:25.877Z,2.63
2023-03-15T00:07:15.858Z,2.58
2023-03-15T00:08:05.855Z,2.51
2023-03-15T00:08:55.817Z,2.45
2023-03-15T00:09:45.834Z,2.41
2023-03-15T00:10:35.830Z,2.41
2023-03-15T00:11:25.824Z,2.40
2023-03-15T00:12:15.805Z,2.43
2023-03-15T00:13:05.795Z,2.44
2023-03-15T00:13:55.785Z,2.45
2023-03-15T00:14:45.782Z,2.44
2023-03-15T00:15:35.781Z,2.44
2023-03-15T00:16:25.758Z,2.44
2023-03-15T00:17:15.755Z,2.44
2023-03-15T00:18:05.730Z,2.44
2023-03-15T00:18:55.717Z,2.44
2023-03-15T00:19:45.717Z,2.44
2023-03-15T00:20:35.701Z,2.44
2023-03-15T00:21:25.704Z,2.44
2023-03-15T00:22:15.696Z,2.45
2023-03-15T00:23:05.679Z,2.45
2023-03-15T00:23:55.686Z,2.44
2023-03-15T00:24:45.674Z,2.45
2023-03-15T00:25:35.668Z,2.45
2023-03-15T00:26:25.644Z,2.44
2023-03-15T00:27:15.633Z,2.38
2023-03-15T00:28:05.630Z,2.27
2023-03-15T00:28:55.612Z,2.27
2023-03-15T00:29:45.604Z,2.29
2023-03-15T00:30:35.609Z,2.32
2023-03-15T00:31:25.605Z,2.33
2023-03-15T00:32:15.583Z,2.33
2023-03-15T00:33:05.571Z,2.36
2023-03-15T00:33:55.589Z,2.37
2023-03-15T00:34:45.543Z,2.40
2023-03-15T00:35:35.545Z,2.40
2023-03-15T00:36:25.540Z,2.40
2023-03-15T00:37:15.513Z,2.41
2023-03-15T00:38:05.518Z,2.40
2023-03-15T00:38:55.536Z,2.36
2023-03-15T00:39:45.482Z,2.33
2023-03-15T00:40:35.482Z,2.36
2023-03-15T00:41:25.489Z,2.36
2023-03-15T00:42:15.482Z,2.33
2023-03-15T00:43:05.457Z,2.27
2023-03-15T00:43:55.442Z,2.23
2023-03-15T00:44:45.452Z,2.23
2023-03-15T00:45:35.432Z,2.25
2023-03-15T00:46:25.413Z,2.23
2023-03-15T00:47:15.422Z,2.25
2023-03-15T00:48:05.400Z,2.19
2023-03-15T00:48:55.391Z,2.19
2023-03-15T00:49:45.391Z,2.20
2023-03-15T00:50:35.393Z,2.22
2023-03-15T00:51:25.378Z,2.20
2023-03-15T00:52:15.389Z,2.22
2023-03-15T00:53:05.352Z,2.19
2023-03-15T00:53:55.352Z,2.19
2023-03-15T00:54:45.331Z,2.19
2023-03-15T00:55:35.337Z,2.19
2023-03-15T00:56:25.320Z,2.19
2023-03-15T00:57:15.323Z,2.19
2023-03-15T00:58:05.288Z,2.19
2023-03-15T00:58:55.290Z,2.18
2023-03-15T00:59:45.284Z,2.18
2023-03-15T01:00:35.261Z,2.15
2023-03-15T01:01:25.314Z,2.15
2023-03-15T01:02:15.266Z,2.14
2023-03-15T01:03:05.302Z,2.14
2023-03-15T01:03:55.238Z,2.12
2023-03-15T01:04:45.217Z,2.12
2023-03-15T01:05:35.207Z,2.07
2023-03-15T01:06:25.206Z,2.02
2023-03-15T01:07:15.193Z,2.02
2023-03-15T01:08:05.221Z,2.04
2023-03-15T01:08:55.176Z,2.04
2023-03-15T01:09:46.876Z,2.05
2023-03-15T01:10:35.145Z,2.05
2023-03-15T01:11:25.156Z,2.02
2023-03-15T01:12:15.145Z,2.02
2023-03-15T01:13:05.135Z,2.00
2023-03-15T01:13:55.121Z,1.98
2023-03-15T01:14:45.111Z,1.95
2023-03-15T01:15:35.116Z,1.95
2023-03-15T01:16:25.114Z,1.98
2023-03-15T01:17:15.117Z,2.01
2023-03-15T01:18:05.077Z,1.98
2023-03-15T01:18:55.079Z,1.98
2023-03-15T01:19:45.055Z,1.98
2023-03-15T01:20:35.080Z,1.95
2023-03-15T01:21:25.047Z,1.92
2023-03-15T01:22:15.032Z,1.92
2023-03-15T01:23:05.028Z,1.92
2023-03-15T01:23:55.108Z,1.90
2023-03-15T01:24:45.014Z,1.92
2023-03-15T01:25:34.986Z,1.92
2023-03-15T01:26:25.014Z,1.90
2023-03-15T01:27:14.962Z,1.88
2023-03-15T01:28:04.962Z,1.90
2023-03-15T01:28:54.970Z,1.89
2023-03-15T01:29:44.937Z,1.93
2023-03-15T01:30:34.931Z,1.93
2023-03-15T01:31:25.005Z,1.95
2023-03-15T01:32:14.929Z,1.98
2023-03-15T01:33:04.904Z,1.98
2023-03-15T01:33:54.902Z,2.00
2023-03-15T01:34:44.896Z,1.98
2023-03-15T01:35:34.910Z,2.01
2023-03-15T01:36:24.866Z,2.02
2023-03-15T01:37:14.858Z,2.04
2023-03-15T01:38:04.858Z,2.05
2023-03-15T01:38:54.841Z,2.04
2023-03-15T01:39:44.841Z,2.04
2023-03-15T01:40:34.848Z,2.00
2023-03-15T01:41:24.836Z,1.95
2023-03-15T01:42:14.804Z,1.93
2023-03-15T01:43:04.799Z,1.92
2023-03-15T01:43:54.802Z,1.92
2023-03-15T01:44:44.785Z,1.92
2023-03-15T01:45:34.783Z,1.93
2023-03-15T01:46:24.936Z,1.98
2023-03-15T01:47:14.759Z,1.98
2023-03-15T01:48:04.746Z,1.98
2023-03-15T01:48:54.736Z,2.00
2023-03-15T01:49:44.739Z,1.98
2023-03-15T01:50:34.731Z,2.00
2023-03-15T01:51:24.702Z,1.98
2023-03-15T01:52:14.694Z,1.95
2023-03-15T01:53:04.680Z,1.95
2023-03-15T01:53:54.678Z,1.93
2023-03-15T01:54:44.695Z,1.93
2023-03-15T01:55:34.678Z,1.95
2023-03-15T01:56:24.654Z,1.95
2023-03-15T01:57:14.633Z,1.98
2023-03-15T01:58:04.644Z,1.92
2023-03-15T01:58:54.626Z,1.89
2023-03-15T01:59:44.606Z,1.86
2023-03-15T02:00:34.613Z,1.85
2023-03-15T02:01:24.601Z,1.82
2023-03-15T02:02:14.749Z,1.83
2023-03-15T02:03:04.585Z,1.82
2023-03-15T02:03:54.589Z,1.82
2023-03-15T02:04:44.569Z,1.82
2023-03-15T02:05:34.576Z,1.83
2023-03-15T02:06:24.552Z,1.85
2023-03-15T02:07:14.534Z,1.86
2023-03-15T02:08:04.512Z,1.86
2023-03-15T02:08:54.514Z,1.86
2023-03-15T02:09:44.508Z,1.86
2023-03-15T02:10:34.501Z,1.85
2023-03-15T02:11:24.496Z,1.88
2023-03-15T02:12:14.472Z,1.88
2023-03-15T02:13:04.460Z,1.88
2023-03-15T02:13:54.474Z,1.88
2023-03-15T02:14:44.454Z,1.89
2023-03-15T02:15:34.441Z,1.86
2023-03-15T02:16:24.480Z,1.89
2023-03-15T02:17:14.424Z,1.89
2023-03-15T02:18:04.416Z,1.88
2023-03-15T02:18:54.402Z,1.89
2023-03-15T02:19:44.423Z,1.89
2023-03-15T02:20:34.403Z,1.89
2023-03-15T02:21:24.395Z,1.90
2023-03-15T02:22:14.382Z,1.90
2023-03-15T02:23:04.379Z,1.92
2023-03-15T02:23:54.365Z,1.89
2023-03-15T02:24:44.338Z,1.89
2023-03-15T02:25:34.343Z,1.89
2023-03-15T02:26:24.338Z,1.89
2023-03-15T02:27:14.335Z,1.90
2023-03-15T02:28:04.313Z,1.90
2023-03-15T02:28:54.307Z,1.93
2023-03-15T02:29:44.298Z,1.90
2023-03-15T02:30:34.280Z,1.90
2023-03-15T02:31:24.324Z,1.92
2023-03-15T02:32:14.294Z,1.92
2023-03-15T02:33:04.257Z,1.92
2023-03-15T02:33:54.235Z,1.92
2023-03-15T02:34:44.244Z,1.92
2023-03-15T02:35:34.261Z,1.90
2023-03-15T02:36:24.201Z,1.90
2023-03-15T02:37:14.210Z,1.92
2023-03-15T02:38:04.207Z,1.93
2023-03-15T02:38:54.213Z,1.92
2023-03-15T02:39:44.169Z,1.90
2023-03-15T02:40:34.167Z,1.90
2023-03-15T02:41:24.168Z,1.90
2023-03-15T02:42:14.190Z,1.90
2023-03-15T02:43:04.138Z,1.90
2023-03-15T02:43:54.139Z,1.88
2023-03-15T02:44:44.142Z,1.88
2023-03-15T02:45:34.155Z,1.86
2023-03-15T02:46:24.234Z,1.85
2023-03-15T02:47:14.106Z,1.83
2023-03-15T02:48:04.100Z,1.85
2023-03-15T02:48:54.100Z,1.82
2023-03-15T02:49:44.103Z,1.83
2023-03-15T02:50:34.080Z,1.83
2023-03-15T02:51:24.051Z,1.85
2023-03-15T02:52:14.202Z,1.85
2023-03-15T02:53:04.054Z,1.85
2023-03-15T02:53:54.042Z,1.86
2023-03-15T02:54:44.025Z,1.86
2023-03-15T02:55:34.040Z,1.86
2023-03-15T02:56:23.999Z,1.86
2023-03-15T02:57:13.998Z,1.86
2023-03-15T02:58:03.968Z,1.86
2023-03-15T02:58:53.987Z,1.86
2023-03-15T02:59:43.947Z,1.88
2023-03-15T03:00:33.954Z,1.86
2023-03-15T03:01:24.034Z,1.88
2023-03-15T03:02:14.023Z,1.88
2023-03-15T03:03:03.936Z,1.89
2023-03-15T03:03:53.906Z,1.86
2023-03-15T03:04:43.908Z,1.83
2023-03-15T03:05:33.905Z,1.85
2023-03-15T03:06:23.900Z,1.82
2023-03-15T03:07:13.881Z,1.79
2023-03-15T03:08:03.864Z,1.77
2023-03-15T03:08:53.866Z,1.79
2023-03-15T03:09:43.849Z,1.75
2023-03-15T03:10:33.860Z,1.79
2023-03-15T03:11:23.839Z,1.79
2023-03-15T03:12:13.836Z,1.77
2023-03-15T03:13:03.830Z,1.75
2023-03-15T03:13:53.820Z,1.77
2023-03-15T03:14:43.809Z,1.79
2023-03-15T03:15:33.795Z,1.81
2023-03-15T03:16:23.828Z,1.79
2023-03-15T03:17:13.785Z,1.81
2023-03-15T03:18:03.744Z,1.81
2023-03-15T03:18:53.744Z,1.79
2023-03-15T03:19:43.754Z,1.79
2023-03-15T03:20:33.747Z,1.79
2023-03-15T03:21:23.729Z,1.75
2023-03-15T03:22:13.724Z,1.72
2023-03-15T03:23:03.707Z,1.72
2023-03-15T03:23:53.701Z,1.71
2023-03-15T03:24:43.704Z,1.74
2023-03-15T03:25:33.688Z,1.74
2023-03-15T03:26:23.658Z,1.74
2023-03-15T03:27:13.647Z,1.75
2023-03-15T03:28:03.648Z,1.77
2023-03-15T03:28:53.648Z,1.79
2023-03-15T03:29:43.633Z,1.79
2023-03-15T03:30:33.636Z,1.79
2023-03-15T03:31:23.623Z,1.77
2023-03-15T03:32:13.604Z,1.75
2023-03-15T03:33:03.601Z,1.77
2023-03-15T03:33:53.574Z,1.75
2023-03-15T03:34:43.589Z,1.77
2023-03-15T03:35:33.613Z,1.79
2023-03-15T03:36:23.561Z,1.75
2023-03-15T03:37:13.551Z,1.75
2023-03-15T03:38:03.522Z,1.75
2023-03-15T03:38:53.546Z,1.74
2023-03-15T03:39:43.521Z,1.72
2023-03-15T03:40:33.520Z,1.71
2023-03-15T03:41:23.492Z,1.71
2023-03-15T03:42:13.490Z,1.72
2023-03-15T03:43:03.493Z,1.71
2023-03-15T03:43:53.471Z,1.71
2023-03-15T03:44:43.460Z,1.70
2023-03-15T03:45:33.460Z,1.70
2023-03-15T03:46:23.511Z,1.70
2023-03-15T03:47:13.445Z,1.71
2023-03-15T03:48:03.440Z,1.71
2023-03-15T03:48:53.440Z,1.70
2023-03-15T03:49:43.407Z,1.70
2023-03-15T03:50:33.400Z,1.72
2023-03-15T03:51:23.390Z,1.70
2023-03-15T03:52:13.383Z,1.68
2023-03-15T03:53:03.367Z,1.67
2023-03-15T03:53:53.377Z,1.67
2023-03-15T03:54:43.348Z,1.67
2023-03-15T03:55:33.356Z,1.67
2023-03-15T03:56:23.328Z,1.67
2023-03-15T03:57:13.328Z,1.67
2023-03-15T03:58:03.311Z,1.64
2023-03-15T03:58:53.319Z,1.65
2023-03-15T03:59:43.307Z,1.63
2023-03-15T04:00:33.296Z,1.63
2023-03-15T04:01:23.282Z,1.56
2023-03-15T04:02:13.266Z,1.57
2023-03-15T04:03:03.276Z,1.54
2023-03-15T04:03:53.247Z,1.53
2023-03-15T04:04:43.293Z,1.50
2023-03-15T04:05:33.235Z,1.46
2023-03-15T04:06:23.218Z,1.43
2023-03-15T04:07:14.539Z,1.42
2023-03-15T04:08:03.223Z,1.36
2023-03-15T04:08:53.227Z,1.34
2023-03-15T04:09:43.204Z,1.32
2023-03-15T04:10:33.172Z,1.32
2023-03-15T04:11:23.175Z,1.32
2023-03-15T04:12:13.217Z,1.29
2023-03-15T04:13:03.152Z,1.29
2023-03-15T04:13:53.142Z,1.28
2023-03-15T04:14:43.122Z,1.28
2023-03-15T04:15:33.114Z,1.28
2023-03-15T04:16:23.139Z,1.26
2023-03-15T04:17:13.119Z,1.25
2023-03-15T04:18:03.093Z,1.25
2023-03-15T04:18:53.092Z,1.21
2023-03-15T04:19:43.086Z,1.18
2023-03-15T04:20:33.107Z,1.18
2023-03-15T04:21:23.116Z,1.14
2023-03-15T04:22:13.039Z,1.16
2023-03-15T04:23:03.050Z,1.13
2023-03-15T04:23:53.030Z,1.08
2023-03-15T04:24:43.021Z,1.02
2023-03-15T04:25:33.018Z,1.00
2023-03-15T04:26:23.006Z,0.99
2023-03-15T04:27:12.991Z,0.96
2023-03-15T04:28:03.035Z,0.98
2023-03-15T04:28:52.962Z,0.95
2023-03-15T04:29:42.972Z,0.95
2023-03-15T04:30:32.958Z,0.93
2023-03-15T04:31:22.972Z,0.92
2023-03-15T04:32:12.932Z,0.92
2023-03-15T04:33:02.942Z,0.90
2023-03-15T04:33:52.912Z,0.89
2023-03-15T04:34:42.922Z,0.84
2023-03-15T04:35:32.995Z,0.80
2023-03-15T04:36:22.899Z,0.74
2023-03-15T04:37:12.894Z,0.68
2023-03-15T04:38:02.893Z,0.67
2023-03-15T04:38:52.887Z,0.64
2023-03-15T04:39:42.869Z,0.60
2023-03-15T04:40:32.860Z,0.62
2023-03-15T04:41:22.853Z,0.63
2023-03-15T04:42:12.857Z,0.63
2023-03-15T04:43:02.826Z,0.62
2023-03-15T04:43:52.836Z,0.60
2023-03-15T04:44:42.814Z,0.63
2023-03-15T04:45:32.786Z,0.60
2023-03-15T04:46:24.863Z,0.59
2023-03-15T04:47:12.792Z,0.59
2023-03-15T04:48:02.802Z,0.59
2023-03-15T04:48:52.763Z,0.59
2023-03-15T04:49:42.765Z,0.57
2023-03-15T04:50:32.739Z,0.57
2023-03-15T04:51:22.744Z,0.53
2023-03-15T04:52:12.742Z,0.52
2023-03-15T04:53:02.725Z,0.57
2023-03-15T04:53:52.702Z,0.57
2023-03-15T04:54:42.718Z,0.56
2023-03-15T04:55:32.704Z,0.56
2023-03-15T04:56:22.691Z,0.57
2023-03-15T04:57:12.734Z,0.56
2023-03-15T04:58:02.664Z,0.57
2023-03-15T04:58:52.653Z,0.57
2023-03-15T04:59:42.662Z,0.56
2023-03-15T05:00:32.680Z,0.53
2023-03-15T05:01:22.623Z,0.53
2023-03-15T05:02:12.654Z,0.52
2023-03-15T05:03:02.641Z,0.52
2023-03-15T05:03:52.624Z,0.53
2023-03-15T05:04:42.598Z,0.52
2023-03-15T05:05:32.569Z,0.53
2023-03-15T05:06:22.578Z,0.52
2023-03-15T05:07:12.564Z,0.52
2023-03-15T05:08:02.549Z,0.52
2023-03-15T05:08:52.570Z,0.52
2023-03-15T05:09:42.547Z,0.51
2023-03-15T05:10:32.528Z,0.51
2023-03-15T05:11:22.540Z,0.49
2023-03-15T05:12:12.516Z,0.51
2023-03-15T05:13:02.513Z,0.51
2023-03-15T05:13:52.497Z,0.51
2023-03-15T05:14:42.585Z,0.53
2023-03-15T05:15:32.510Z,0.51
2023-03-15T05:16:22.555Z,0.51
2023-03-15T05:17:12.498Z,0.51
2023-03-15T05:18:02.461Z,0.49
2023-03-15T05:18:52.456Z,0.49
2023-03-15T05:19:42.438Z,0.48
2023-03-15T05:20:32.427Z,0.45
2023-03-15T05:21:22.406Z,0.44
2023-03-15T05:22:12.395Z,0.45
2023-03-15T05:23:02.389Z,0.45
2023-03-15T05:23:52.395Z,0.43
2023-03-15T05:24:42.372Z,0.43
2023-03-15T05:25:32.362Z,0.44
2023-03-15T05:26:22.364Z,0.43
2023-03-15T05:27:12.334Z,0.43
2023-03-15T05:28:02.368Z,0.41
2023-03-15T05:28:52.349Z,0.41
2023-03-15T05:29:42.358Z,0.38
2023-03-15T05:30:32.304Z,0.38
2023-03-15T05:31:22.357Z,0.38
2023-03-15T05:32:12.300Z,0.37
2023-03-15T05:33:02.273Z,0.35
2023-03-15T05:33:52.273Z,0.35
2023-03-15T05:34:42.274Z,0.33
2023-03-15T05:35:32.294Z,0.33
2023-03-15T05:36:22.267Z,0.30
2023-03-15T05:37:12.263Z,0.30
2023-03-15T05:38:02.224Z,0.28
2023-03-15T05:38:52.235Z,0.26
2023-03-15T05:39:42.222Z,0.25
2023-03-15T05:40:32.214Z,0.23
2023-03-15T05:41:22.194Z,0.23
2023-03-15T05:42:12.189Z,0.19
2023-03-15T05:43:02.169Z,0.17
2023-03-15T05:43:52.159Z,0.17
2023-03-15T05:44:42.177Z,0.16
2023-03-15T05:45:32.227Z,0.16
2023-03-15T05:46:22.168Z,0.16
2023-03-15T05:47:12.122Z,0.17
2023-03-15T05:48:02.148Z,0.17
2023-03-15T05:48:52.126Z,0.16
2023-03-15T05:49:42.126Z,0.16
2023-03-15T05:50:32.099Z,0.13
2023-03-15T05:51:22.084Z,0.13
2023-03-15T05:52:12.057Z,0.13
2023-03-15T05:53:02.079Z,0.10
2023-03-15T05:53:52.058Z,0.10
2023-03-15T05:54:42.059Z,0.10
2023-03-15T05:55:32.033Z,0.08
2023-03-15T05:56:22.036Z,0.08
2023-03-15T05:57:12.024Z,0.07
2023-03-15T05:58:02.004Z,0.07
2023-03-15T05:58:52.021Z,0.08
2023-03-15T05:59:41.992Z,0.08
2023-03-15T06:00:31.986Z,0.07
2023-03-15T06:01:21.982Z,0.07
2023-03-15T06:02:11.955Z,0.07
2023-03-15T06:03:02.005Z,0.08
2023-03-15T06:03:51.948Z,0.08
2023-03-15T06:04:41.955Z,0.08
2023-03-15T06:05:32.136Z,0.08
2023-03-15T06:06:21.922Z,0.05
2023-03-15T06:07:11.913Z,0.08
2023-03-15T06:08:01.907Z,0.10
2023-03-15T06:08:51.888Z,0.12
2023-03-15T06:09:41.891Z,0.10
2023-03-15T06:10:31.859Z,0.10
2023-03-15T06:11:21.968Z,0.10
2023-03-15T06:12:11.847Z,0.12
2023-03-15T06:13:01.888Z,0.10
2023-03-15T06:13:51.870Z,0.10
2023-03-15T06:14:41.818Z,0.13
2023-03-15T06:15:31.817Z,0.12
2023-03-15T06:16:21.869Z,0.10
2023-03-15T06:17:11.799Z,0.10
2023-03-15T06:18:01.784Z,0.12
2023-03-15T06:18:51.756Z,0.08
2023-03-15T06:19:41.771Z,0.08
2023-03-15T06:20:31.761Z,0.07
2023-03-15T06:21:21.785Z,0.05
2023-03-15T06:22:11.726Z,0.07
2023-03-15T06:23:01.787Z,0.07
2023-03-15T06:23:51.734Z,0.04
2023-03-15T06:24:41.703Z,0.07
2023-03-15T06:25:31.695Z,0.07
2023-03-15T06:26:21.703Z,0.07
2023-03-15T06:27:11.698Z,0.07
2023-03-15T06:28:01.691Z,0.08
2023-03-15T06:28:51.675Z,0.08
2023-03-15T06:29:41.676Z,0.10
2023-03-15T06:30:31.770Z,0.10
2023-03-15T06:31:21.695Z,0.12
2023-03-15T06:32:11.640Z,0.13
2023-03-15T06:33:01.713Z,0.12
2023-03-15T06:33:51.603Z,0.13
2023-03-15T06:34:41.604Z,0.15
2023-03-15T06:35:31.654Z,0.16
2023-03-15T06:36:21.593Z,0.16
2023-03-15T06:37:11.591Z,0.15
2023-03-15T06:38:01.566Z,0.16
2023-03-15T06:38:51.553Z,0.17
2023-03-15T06:39:41.572Z,0.16
2023-03-15T06:40:31.555Z,0.19
2023-03-15T06:41:21.536Z,0.16
2023-03-15T06:42:11.512Z,0.17
2023-03-15T06:43:01.531Z,0.17
2023-03-15T06:43:51.495Z,0.17
2023-03-15T06:44:41.507Z,0.19
2023-03-15T06:45:31.487Z,0.19
2023-03-15T06:46:21.478Z,0.20
2023-03-15T06:47:11.460Z,0.22
2023-03-15T06:48:01.470Z,0.23
2023-03-15T06:48:51.455Z,0.22
2023-03-15T06:49:41.482Z,0.25
2023-03-15T06:50:40.607Z,0.25
2023-03-15T06:51:22.430Z,0.25
2023-03-15T06:52:11.409Z,0.26
2023-03-15T06:53:01.439Z,0.26
2023-03-15T06:53:51.399Z,0.25
2023-03-15T06:54:41.388Z,0.30
2023-03-15T06:55:31.364Z,0.28
2023-03-15T06:56:21.359Z,0.28
2023-03-15T06:57:11.358Z,0.28
2023-03-15T06:58:01.349Z,0.30
2023-03-15T06:58:51.345Z,0.30
2023-03-15T06:59:41.316Z,0.28
2023-03-15T07:00:31.347Z,0.30
2023-03-15T07:01:21.345Z,0.31
2023-03-15T07:02:11.445Z,0.31
2023-03-15T07:03:01.414Z,0.31
2023-03-15T07:03:51.280Z,0.31
2023-03-15T07:04:41.287Z,0.33
2023-03-15T07:05:31.293Z,0.35
2023-03-15T07:06:21.260Z,0.35
2023-03-15T07:07:11.446Z,0.37
2023-03-15T07:08:01.346Z,0.35
2023-03-15T07:08:51.228Z,0.35
2023-03-15T07:09:41.238Z,0.35
2023-03-15T07:10:31.269Z,0.37
2023-03-15T07:11:21.200Z,0.40
2023-03-15T07:12:11.213Z,0.43
2023-03-15T07:13:01.206Z,0.43
2023-03-15T07:13:51.264Z,0.43
2023-03-15T07:14:41.166Z,0.44
2023-03-15T07:15:31.158Z,0.48
2023-03-15T07:16:21.239Z,0.49
2023-03-15T07:17:11.138Z,0.51
2023-03-15T07:18:01.131Z,0.49
2023-03-15T07:18:51.144Z,0.51
2023-03-15T07:19:50.187Z,0.56
2023-03-15T07:20:32.102Z,0.56
2023-03-15T07:21:21.120Z,0.56
2023-03-15T07:22:11.103Z,0.57
2023-03-15T07:23:01.099Z,0.59
2023-03-15T07:23:51.061Z,0.59
2023-03-15T07:24:41.093Z,0.60
2023-03-15T07:25:31.062Z,0.60
2023-03-15T07:26:21.047Z,0.60
2023-03-15T07:27:11.190Z,0.62
2023-03-15T07:28:01.038Z,0.62
2023-03-15T07:28:51.015Z,0.62
2023-03-15T07:29:41.410Z,0.63
2023-03-15T07:30:31.004Z,0.68
2023-03-15T07:31:20.984Z,0.68
2023-03-15T07:32:11.041Z,0.70
2023-03-15T07:33:01.820Z,0.72
2023-03-15T07:33:50.987Z,0.72
2023-03-15T07:34:40.961Z,0.72
2023-03-15T07:35:30.983Z,0.74
2023-03-15T07:36:20.947Z,0.75
2023-03-15T07:37:10.946Z,0.77
2023-03-15T07:38:00.921Z,0.78
2023-03-15T07:38:50.935Z,0.78
2023-03-15T07:39:40.934Z,0.80
2023-03-15T07:40:30.912Z,0.82
2023-03-15T07:41:20.885Z,0.84
2023-03-15T07:42:10.882Z,0.86
2023-03-15T07:43:01.064Z,0.86
2023-03-15T07:43:50.876Z,0.89
2023-03-15T07:44:40.903Z,0.86
2023-03-15T07:45:30.842Z,0.84
2023-03-15T07:46:20.859Z,0.88
2023-03-15T07:47:10.835Z,0.89
2023-03-15T07:48:00.788Z,0.89
2023-03-15T07:48:50.802Z,0.90
2023-03-15T07:49:40.809Z,0.90
2023-03-15T07:50:30.796Z,0.92
2023-03-15T07:51:20.755Z,0.95
2023-03-15T07:52:10.758Z,0.96
2023-03-15T07:53:00.751Z,0.96
2023-03-15T07:53:50.747Z,0.99
2023-03-15T07:54:40.741Z,0.99
2023-03-15T07:55:30.721Z,1.00
2023-03-15T07:56:20.717Z,1.02
2023-03-15T07:57:10.721Z,1.04
2023-03-15T07:58:00.706Z,1.06
2023-03-15T07:58:50.685Z,1.07
2023-03-15T07:59:40.683Z,1.07
2023-03-15T08:00:30.685Z,1.08
2023-03-15T08:01:20.671Z,1.11
2023-03-15T08:02:10.711Z,1.10
2023-03-15T08:03:00.692Z,1.11
2023-03-15T08:03:50.633Z,1.13
2023-03-15T08:04:40.635Z,1.13
2023-03-15T08:05:30.624Z,1.13
2023-03-15T08:06:20.596Z,1.08
2023-03-15T08:07:10.616Z,1.07
2023-03-15T08:08:00.592Z,1.08
2023-03-15T08:08:50.574Z,1.10
2023-03-15T08:09:40.575Z,1.10
2023-03-15T08:10:30.557Z,1.14
2023-03-15T08:11:20.557Z,1.17
2023-03-15T08:12:10.546Z,1.20
2023-03-15T08:13:00.564Z,1.21
2023-03-15T08:13:50.524Z,1.25
2023-03-15T08:14:40.502Z,1.28
2023-03-15T08:15:30.496Z,1.29
2023-03-15T08:16:20.557Z,1.34
2023-03-15T08:17:10.496Z,1.34
2023-03-15T08:18:00.472Z,1.38
2023-03-15T08:18:50.483Z,1.39
2023-03-15T08:19:40.467Z,1.46
2023-03-15T08:20:30.509Z,1.49
2023-03-15T08:21:20.431Z,1.54
2023-03-15T08:22:10.440Z,1.57
2023-03-15T08:23:00.417Z,1.61
2023-03-15T08:23:50.402Z,1.64
2023-03-15T08:24:40.421Z,1.65
2023-03-15T08:25:30.397Z,1.67
2023-03-15T08:26:20.397Z,1.71
2023-03-15T08:27:10.380Z,1.72
2023-03-15T08:28:00.380Z,1.75
2023-03-15T08:28:50.352Z,1.77
2023-03-15T08:29:40.354Z,1.79
2023-03-15T08:30:30.341Z,1.83
2023-03-15T08:31:20.387Z,1.89
2023-03-15T08:32:10.351Z,1.90
2023-03-15T08:33:00.376Z,1.98
2023-03-15T08:33:50.316Z,2.01
2023-03-15T08:34:40.285Z,2.04
2023-03-15T08:35:30.332Z,2.07
2023-03-15T08:36:20.314Z,2.09
2023-03-15T08:37:10.278Z,2.09
2023-03-15T08:38:00.247Z,2.12
2023-03-15T08:38:50.270Z,2.15
2023-03-15T08:39:40.241Z,2.18
2023-03-15T08:40:30.241Z,2.23
2023-03-15T08:41:20.228Z,2.27
2023-03-15T08:42:10.252Z,2.29
2023-03-15T08:43:00.226Z,2.33
2023-03-15T08:43:50.196Z,2.38
2023-03-15T08:44:40.186Z,2.43
2023-03-15T08:45:31.520Z,2.47
2023-03-15T08:46:20.218Z,2.51
2023-03-15T08:47:10.154Z,2.55
2023-03-15T08:48:00.170Z,2.56
2023-03-15T08:48:50.146Z,2.56
2023-03-15T08:49:40.138Z,2.58
2023-03-15T08:50:30.152Z,2.61
2023-03-15T08:51:20.141Z,2.63
2023-03-15T08:52:10.145Z,2.65
2023-03-15T08:53:00.106Z,2.68
2023-03-15T08:53:50.091Z,2.73
2023-03-15T08:54:40.095Z,2.74
2023-03-15T08:55:30.072Z,2.80
2023-03-15T08:56:20.060Z,2.81
2023-03-15T08:57:10.068Z,2.84
2023-03-15T08:58:00.023Z,2.86
2023-03-15T08:58:50.022Z,2.90
2023-03-15T08:59:40.033Z,2.95
2023-03-15T09:00:30.033Z,3.02
2023-03-15T09:01:20.023Z,3.05
2023-03-15T09:02:10.059Z,3.10
2023-03-15T09:02:59.986Z,3.10
2023-03-15T09:03:49.977Z,3.13
2023-03-15T09:04:40.022Z,3.07
2023-03-15T09:05:29.976Z,3.02
2023-03-15T09:06:19.937Z,3.02
2023-03-15T09:07:09.946Z,3.04
2023-03-15T09:07:59.939Z,3.05
2023-03-15T09:08:49.916Z,3.10
2023-03-15T09:09:39.917Z,3.17
2023-03-15T09:10:29.897Z,3.25
2023-03-15T09:11:19.919Z,3.34
2023-03-15T09:12:09.895Z,3.41
2023-03-15T09:12:59.874Z,3.50
2023-03-15T09:13:49.879Z,3.54
2023-03-15T09:14:39.857Z,3.52
2023-03-15T09:15:29.853Z,3.52
2023-03-15T09:16:19.916Z,3.46
2023-03-15T09:17:09.860Z,3.45
2023-03-15T09:17:59.816Z,3.45
2023-03-15T09:18:49.818Z,3.50
2023-03-15T09:19:39.789Z,3.53
2023-03-15T09:20:29.792Z,3.60
2023-03-15T09:21:19.795Z,3.68
2023-03-15T09:22:16.652Z,3.78
2023-03-15T09:23:00.767Z,3.78
2023-03-15T09:23:49.787Z,3.80
2023-03-15T09:24:39.745Z,3.81
2023-03-15T09:25:29.749Z,3.82
2023-03-15T09:26:19.740Z,3.90
2023-03-15T09:27:09.745Z,3.90
2023-03-15T09:27:59.719Z,3.89
2023-03-15T09:28:49.700Z,3.90
2023-03-15T09:29:39.713Z,3.89
2023-03-15T09:30:29.722Z,3.90
2023-03-15T09:31:19.746Z,3.86
2023-03-15T09:32:09.696Z,3.88
2023-03-15T09:32:59.679Z,3.89
2023-03-15T09:33:49.658Z,3.89
2023-03-15T09:34:41.949Z,3.92
2023-03-15T09:35:29.667Z,3.95
2023-03-15T09:36:19.628Z,3.98
2023-03-15T09:37:09.623Z,4.00
2023-03-15T09:37:59.619Z,4.04
2023-03-15T09:38:49.623Z,4.04
2023-03-15T09:39:39.578Z,4.06
2023-03-15T09:40:29.614Z,4.02
2023-03-15T09:41:19.578Z,4.06
2023-03-15T09:42:09.568Z,4.07
2023-03-15T09:42:59.538Z,4.11
2023-03-15T09:43:49.544Z,4.14
2023-03-15T09:44:39.538Z,4.18
2023-03-15T09:45:29.559Z,4.26
2023-03-15T09:46:19.766Z,4.35
2023-03-15T09:47:09.614Z,4.39
2023-03-15T09:47:59.510Z,4.44
2023-03-15T09:48:49.504Z,4.51
2023-03-15T09:49:39.489Z,4.59
2023-03-15T09:50:29.482Z,4.67
2023-03-15T09:51:19.467Z,4.69
2023-03-15T09:52:09.470Z,4.71
2023-03-15T09:52:59.437Z,4.77
2023-03-15T09:53:49.449Z,4.86
2023-03-15T09:54:39.418Z,4.86
2023-03-15T09:55:29.443Z,4.84
2023-03-15T09:56:19.414Z,4.68
2023-03-15T09:57:09.419Z,4.68
2023-03-15T09:57:59.379Z,4.71
2023-03-15T09:58:49.406Z,4.74
2023-03-15T09:59:39.378Z,4.80
2023-03-15T10:00:29.378Z,4.88
2023-03-15T10:01:19.383Z,4.91
2023-03-15T10:02:09.356Z,4.99
2023-03-15T10:02:59.371Z,5.09
2023-03-15T10:03:49.423Z,5.17
2023-03-15T10:04:39.314Z,5.24
2023-03-15T10:05:29.296Z,5.32
2023-03-15T10:06:19.304Z,5.40
2023-03-15T10:07:09.311Z,5.42
2023-03-15T10:07:59.286Z,5.45
2023-03-15T10:08:49.283Z,5.35
2023-03-15T10:09:39.265Z,5.33
2023-03-15T10:10:29.255Z,5.32
2023-03-15T10:11:19.236Z,5.33
2023-03-15T10:12:09.234Z,5.32
2023-03-15T10:12:59.227Z,5.30
2023-03-15T10:13:49.234Z,5.32
2023-03-15T10:14:39.231Z,5.32
2023-03-15T10:15:29.185Z,5.35
2023-03-15T10:16:19.243Z,5.37
2023-03-15T10:17:09.185Z,5.33
2023-03-15T10:17:59.198Z,5.33
2023-03-15T10:18:49.198Z,5.35
2023-03-15T10:19:39.165Z,5.38
2023-03-15T10:20:29.143Z,5.41
2023-03-15T10:21:19.142Z,5.42
2023-03-15T10:22:09.201Z,5.47
2023-03-15T10:22:59.101Z,5.51
2023-03-15T10:23:49.104Z,5.60
2023-03-15T10:24:39.103Z,5.65
2023-03-15T10:25:29.093Z,5.67
2023-03-15T10:26:19.083Z,5.67
2023-03-15T10:27:09.107Z,5.58
2023-03-15T10:27:59.050Z,5.52
2023-03-15T10:28:49.059Z,5.51
2023-03-15T10:29:39.045Z,5.52
2023-03-15T10:30:29.032Z,5.55
2023-03-15T10:31:25.947Z,5.59
2023-03-15T10:32:10.089Z,5.59
2023-03-15T10:32:59.095Z,5.55
2023-03-15T10:33:49.003Z,5.51
2023-03-15T10:34:38.990Z,5.47
2023-03-15T10:35:28.958Z,5.45
2023-03-15T10:36:19.016Z,5.48
2023-03-15T10:37:08.988Z,5.59
2023-03-15T10:37:58.947Z,5.66
2023-03-15T10:38:48.949Z,5.67
2023-03-15T10:39:38.920Z,5.70
2023-03-15T10:40:28.907Z,5.67
2023-03-15T10:41:28.518Z,5.69
2023-03-15T10:42:09.908Z,5.70
2023-03-15T10:42:58.882Z,5.73
2023-03-15T10:43:48.885Z,5.74
2023-03-15T10:44:38.898Z,5.73
2023-03-15T10:45:28.902Z,5.69
2023-03-15T10:46:18.879Z,5.63
2023-03-15T10:47:22.160Z,5.56
2023-03-15T10:48:01.110Z,5.55
2023-03-15T10:48:48.816Z,5.52
2023-03-15T10:49:38.815Z,5.56
2023-03-15T10:50:28.798Z,5.58
2023-03-15T10:51:18.785Z,5.65
2023-03-15T10:52:08.784Z,5.69
2023-03-15T10:52:58.789Z,5.74
2023-03-15T10:53:48.772Z,5.78
2023-03-15T10:54:38.761Z,5.78
2023-03-15T10:55:28.759Z,5.77
2023-03-15T10:56:18.731Z,5.74
2023-03-15T10:57:08.730Z,5.69
2023-03-15T10:57:58.723Z,5.66
2023-03-15T10:59:01.689Z,5.69
2023-03-15T10:59:39.690Z,5.70
2023-03-15T11:00:28.694Z,5.73
2023-03-15T11:01:18.706Z,5.73
2023-03-15T11:02:08.776Z,5.69
2023-03-15T11:02:58.727Z,5.65
2023-03-15T11:03:48.650Z,5.60
2023-03-15T11:04:38.660Z,5.62
2023-03-15T11:05:28.638Z,5.62